createdAt,value
2023-07-29T00:00:41.854Z,99922.53
2023-07-29T00:03:44.290Z,99917.75
2023-07-29T00:06:46.772Z,99918.66
2023-07-29T00:09:49.223Z,99921.72
2023-07-29T00:12:51.612Z,99910.81
2023-07-29T00:15:56.706Z,99921.03
2023-07-29T00:18:59.179Z,99926.03
2023-07-29T00:22:01.647Z,99917.22
2023-07-29T00:25:04.253Z,99926.16
2023-07-29T00:28:06.838Z,99936.09
2023-07-29T00:31:09.360Z,99932.06
2023-07-29T00:34:11.846Z,99928.56
2023-07-29T00:37:14.283Z,99932.44
2023-07-29T00:40:21.946Z,99936.16
2023-07-29T00:43:24.393Z,99926.88
2023-07-29T00:46:29.885Z,99924.19
2023-07-29T00:49:33.684Z,99920.91
2023-07-29T00:52:36.221Z,99926.34
2023-07-29T00:55:38.748Z,99925.00
2023-07-29T00:58:41.239Z,99918.63
2023-07-29T01:01:43.982Z,99917.84
2023-07-29T01:04:46.436Z,99923.50
2023-07-29T01:07:49.493Z,99925.31
2023-07-29T01:11:19.941Z,99921.28
2023-07-29T01:14:42.645Z,99923.25
2023-07-29T01:17:55.581Z,99921.97
2023-07-29T01:21:05.244Z,99914.22
2023-07-29T01:24:07.694Z,99911.44
2023-07-29T01:27:10.122Z,99908.59
2023-07-29T01:30:15.037Z,99905.84
2023-07-29T01:33:27.894Z,99908.56
2023-07-29T01:36:32.954Z,99907.41
2023-07-29T01:39:39.031Z,99911.31
2023-07-29T01:42:41.612Z,99909.81
2023-07-29T01:45:44.299Z,99911.44
2023-07-29T01:48:46.813Z,99909.81
2023-07-29T01:51:50.406Z,99915.94
2023-07-29T01:54:53.438Z,99906.44
2023-07-29T01:57:55.908Z,99907.91
2023-07-29T02:00:59.712Z,99912.66
2023-07-29T02:04:02.197Z,99910.22
2023-07-29T02:07:04.961Z,99908.94
2023-07-29T02:10:08.808Z,99910.50
2023-07-29T02:13:11.799Z,99912.19
2023-07-29T02:16:14.238Z,99907.59
2023-07-29T02:19:17.092Z,99927.81
2023-07-29T02:22:19.644Z,99926.72
2023-07-29T02:25:22.088Z,99930.56
2023-07-29T02:28:24.680Z,99926.91
2023-07-29T02:31:27.324Z,99918.94
2023-07-29T02:34:30.272Z,99918.00
2023-07-29T02:37:32.876Z,99923.41
2023-07-29T02:40:35.393Z,99920.13
2023-07-29T02:43:37.825Z,99920.41
2023-07-29T02:46:40.617Z,99919.03
2023-07-29T02:49:43.330Z,99923.88
2023-07-29T02:52:46.741Z,99922.22
2023-07-29T02:55:50.403Z,99928.34
2023-07-29T02:58:53.166Z,99938.63
2023-07-29T03:01:55.710Z,99929.69
2023-07-29T03:04:58.173Z,99942.34
2023-07-29T03:08:00.847Z,99940.13
2023-07-29T03:11:14.520Z,99929.97
2023-07-29T03:14:16.944Z,99931.75
2023-07-29T03:17:19.655Z,99932.09
2023-07-29T03:20:22.272Z,99937.09
2023-07-29T03:23:24.783Z,99944.91
2023-07-29T03:26:27.234Z,99941.72
2023-07-29T03:29:29.609Z,99945.03
2023-07-29T03:32:32.124Z,99944.19
2023-07-29T03:35:34.553Z,99950.34
2023-07-29T03:38:41.162Z,99946.09
2023-07-29T03:41:44.060Z,99949.69
2023-07-29T03:44:46.459Z,99954.28
2023-07-29T03:47:48.893Z,99949.00
2023-07-29T03:50:51.516Z,99941.56
2023-07-29T03:53:53.960Z,99950.50
2023-07-29T03:56:56.503Z,99937.22
2023-07-29T03:59:58.957Z,99943.78
2023-07-29T04:03:01.478Z,99943.28
2023-07-29T04:06:04.152Z,99942.19
2023-07-29T04:09:06.700Z,99930.09
2023-07-29T04:12:09.346Z,99924.66
2023-07-29T04:15:11.807Z,99930.13
2023-07-29T04:18:14.271Z,99924.16
2023-07-29T04:21:17.626Z,99931.03
2023-07-29T04:24:21.393Z,99934.84
2023-07-29T04:27:24.000Z,99932.84
2023-07-29T04:30:26.601Z,99939.94
2023-07-29T04:33:31.100Z,99951.41
2023-07-29T04:36:33.750Z,99940.19
2023-07-29T04:39:36.676Z,99945.84
2023-07-29T04:42:39.136Z,99956.06
2023-07-29T04:45:45.248Z,99956.53
2023-07-29T04:48:47.694Z,99957.72
2023-07-29T04:51:50.108Z,99957.78
2023-07-29T04:54:52.555Z,99966.19
2023-07-29T04:57:54.949Z,99957.75
2023-07-29T05:00:57.426Z,99955.94
2023-07-29T05:03:59.885Z,99937.69
2023-07-29T05:07:02.626Z,99948.50
2023-07-29T05:10:05.943Z,99955.34
2023-07-29T05:13:11.700Z,99962.34
2023-07-29T05:16:14.878Z,99975.34
2023-07-29T05:19:17.307Z,99958.47
2023-07-29T05:22:19.713Z,99967.59
2023-07-29T05:25:22.301Z,99967.22
2023-07-29T05:28:24.800Z,99960.91
2023-07-29T05:31:27.368Z,99962.00
2023-07-29T05:34:30.094Z,99964.75
2023-07-29T05:37:32.527Z,99964.94
2023-07-29T05:40:35.178Z,99959.69
2023-07-29T05:43:38.504Z,99967.75
2023-07-29T05:46:41.157Z,99989.47
2023-07-29T05:49:43.843Z,99992.56
2023-07-29T05:52:46.272Z,99991.44
2023-07-29T05:55:48.740Z,99992.88
2023-07-29T05:58:51.132Z,99991.47
2023-07-29T06:01:53.887Z,99996.41
2023-07-29T06:04:57.172Z,99997.78
2023-07-29T06:08:00.034Z,99994.72
2023-07-29T06:11:02.726Z,99991.59
2023-07-29T06:14:05.172Z,99977.09
2023-07-29T06:17:08.343Z,99980.59
2023-07-29T06:20:11.387Z,99984.63
2023-07-29T06:23:13.884Z,99975.72
2023-07-29T06:26:16.354Z,99980.53
2023-07-29T06:29:18.763Z,99978.84
2023-07-29T06:32:21.176Z,99991.06
2023-07-29T06:35:23.611Z,99975.78
2023-07-29T06:38:26.075Z,99980.03
2023-07-29T06:41:28.524Z,99983.31
2023-07-29T06:44:30.951Z,99983.09
2023-07-29T06:47:33.470Z,99985.13
2023-07-29T06:50:35.956Z,99985.56
2023-07-29T06:53:38.412Z,99978.06
2023-07-29T06:56:40.862Z,99976.28
2023-07-29T06:59:43.315Z,99988.97
2023-07-29T07:02:45.805Z,99994.41
2023-07-29T07:05:48.252Z,99991.44
2023-07-29T07:08:51.016Z,99995.53
2023-07-29T07:11:53.734Z,99987.66
2023-07-29T07:14:56.297Z,99981.03
2023-07-29T07:17:58.863Z,99981.75
2023-07-29T07:21:01.339Z,99973.78
2023-07-29T07:24:03.938Z,99974.66
2023-07-29T07:27:06.614Z,99964.19
2023-07-29T07:30:09.504Z,99969.09
2023-07-29T07:33:11.960Z,99971.75
2023-07-29T07:36:14.380Z,99970.34
2023-07-29T07:39:16.890Z,99963.63
2023-07-29T07:42:19.309Z,99965.81
2023-07-29T07:45:21.831Z,99961.41
2023-07-29T07:48:24.299Z,99956.28
2023-07-29T07:51:26.722Z,99943.38
2023-07-29T07:54:29.116Z,99946.38
2023-07-29T07:57:31.493Z,99940.72
2023-07-29T08:00:33.867Z,99931.00
2023-07-29T08:03:37.153Z,99935.88
2023-07-29T08:06:39.715Z,99936.16
2023-07-29T08:09:42.310Z,99923.00
2023-07-29T08:12:44.719Z,99936.19
2023-07-29T08:15:49.055Z,99935.50
2023-07-29T08:18:51.492Z,99931.03
2023-07-29T08:21:54.115Z,99922.81
2023-07-29T08:24:56.515Z,99924.50
2023-07-29T08:27:59.059Z,99927.78
2023-07-29T08:31:01.621Z,99925.00
2023-07-29T08:34:04.125Z,99920.81
2023-07-29T08:37:06.936Z,99922.06
2023-07-29T08:40:10.074Z,99925.22
2023-07-29T08:43:13.504Z,99911.72
2023-07-29T08:46:17.803Z,99908.25
2023-07-29T08:49:20.977Z,99918.56
2023-07-29T08:52:24.179Z,99915.91
2023-07-29T08:55:26.798Z,99913.19
2023-07-29T08:58:29.886Z,99908.00
2023-07-29T09:01:32.668Z,99920.63
2023-07-29T09:04:35.200Z,99922.88
2023-07-29T09:07:39.321Z,99906.06
2023-07-29T09:10:41.964Z,99914.66
2023-07-29T09:13:44.875Z,99913.19
2023-07-29T09:16:47.495Z,99913.47
2023-07-29T09:19:51.533Z,99906.84
2023-07-29T09:23:01.169Z,99900.22
2023-07-29T09:26:04.750Z,99908.03
2023-07-29T09:29:07.235Z,99907.13
2023-07-29T09:32:21.051Z,99901.63
2023-07-29T09:35:23.872Z,99903.72
2023-07-29T09:38:29.471Z,99889.91
2023-07-29T09:41:34.471Z,99896.19
2023-07-29T09:44:39.605Z,99891.03
2023-07-29T09:47:43.812Z,99884.41
2023-07-29T09:50:48.445Z,99885.41
2023-07-29T09:53:53.285Z,99883.22
2023-07-29T09:56:55.748Z,99882.78
2023-07-29T09:59:58.485Z,99877.69
2023-07-29T10:03:01.757Z,99868.34
2023-07-29T10:06:08.507Z,99870.69
2023-07-29T10:09:13.157Z,99867.59
2023-07-29T10:12:17.646Z,99867.91
2023-07-29T10:15:22.041Z,99862.44
2023-07-29T10:18:25.653Z,99866.97
2023-07-29T10:21:30.255Z,99868.56
2023-07-29T10:24:34.371Z,99863.19
2023-07-29T10:27:44.433Z,99862.03
2023-07-29T10:30:47.691Z,99859.38
2023-07-29T10:33:51.150Z,99876.72
2023-07-29T10:36:54.120Z,99868.16
2023-07-29T10:39:56.821Z,99870.53
2023-07-29T10:43:04.476Z,99866.66
2023-07-29T10:46:23.907Z,99853.72
2023-07-29T10:49:32.326Z,99850.16
2023-07-29T10:52:37.682Z,99847.97
2023-07-29T10:55:40.206Z,99853.47
2023-07-29T10:58:44.433Z,99830.66
2023-07-29T11:01:59.156Z,99831.88
2023-07-29T11:05:07.480Z,99838.47
2023-07-29T11:08:19.566Z,99839.69
2023-07-29T11:11:21.990Z,99834.59
2023-07-29T11:14:25.661Z,99831.31
2023-07-29T11:17:28.524Z,99825.44
2023-07-29T11:20:34.159Z,99815.13
2023-07-29T11:23:38.226Z,99821.72
2023-07-29T11:26:47.928Z,99816.91
2023-07-29T11:29:50.405Z,99813.13
2023-07-29T11:32:54.788Z,99806.59
2023-07-29T11:35:57.318Z,99804.25
2023-07-29T11:38:59.752Z,99801.28
2023-07-29T11:42:02.147Z,99795.66
2023-07-29T11:45:07.595Z,99793.66
2023-07-29T11:48:10.242Z,99780.16
2023-07-29T11:51:14.360Z,99782.78
2023-07-29T11:54:17.222Z,99784.03
2023-07-29T11:57:20.005Z,99788.69
2023-07-29T12:00:22.770Z,99791.25
2023-07-29T12:03:26.929Z,99783.63
2023-07-29T12:06:32.190Z,99784.88
2023-07-29T12:09:38.421Z,99780.66
2023-07-29T12:12:50.959Z,99774.00
2023-07-29T12:15:54.915Z,99770.69
2023-07-29T12:18:57.628Z,99770.16
2023-07-29T12:22:00.343Z,99765.13
2023-07-29T12:25:04.360Z,99766.84
2023-07-29T12:28:08.052Z,99764.03
2023-07-29T12:31:10.959Z,99766.50
2023-07-29T12:34:21.157Z,99773.66
2023-07-29T12:37:32.810Z,99771.53
2023-07-29T12:40:39.504Z,99773.47
2023-07-29T12:43:41.958Z,99785.31
2023-07-29T12:46:44.911Z,99774.84
2023-07-29T12:49:47.412Z,99777.47
2023-07-29T12:52:49.852Z,99773.13
2023-07-29T12:55:52.284Z,99773.41
2023-07-29T12:58:54.687Z,99777.34
2023-07-29T13:01:57.166Z,99774.66
2023-07-29T13:04:59.558Z,99772.56
2023-07-29T13:08:02.049Z,99755.19
2023-07-29T13:11:05.486Z,99767.47
2023-07-29T13:14:07.989Z,99760.47
2023-07-29T13:17:10.417Z,99758.91
2023-07-29T13:20:12.888Z,99751.31
2023-07-29T13:23:16.745Z,99750.84
2023-07-29T13:26:19.176Z,99739.72
2023-07-29T13:29:21.625Z,99745.44
2023-07-29T13:32:24.058Z,99742.69
2023-07-29T13:35:26.785Z,99732.97
2023-07-29T13:38:29.754Z,99732.59
2023-07-29T13:41:32.697Z,99721.97
2023-07-29T13:44:35.078Z,99709.41
2023-07-29T13:47:38.132Z,99698.41
2023-07-29T13:50:40.698Z,99704.03
2023-07-29T13:53:43.134Z,99706.28
2023-07-29T13:56:45.552Z,99706.56
2023-07-29T13:59:48.152Z,99699.75
2023-07-29T14:02:50.623Z,99692.44
2023-07-29T14:05:53.182Z,99686.25
2023-07-29T14:08:55.609Z,99683.91
2023-07-29T14:11:58.040Z,99698.66
2023-07-29T14:15:00.541Z,99707.34
2023-07-29T14:18:03.820Z,99708.53
2023-07-29T14:21:06.288Z,99727.72
2023-07-29T14:24:08.725Z,99749.06
2023-07-29T14:27:11.126Z,99744.34
2023-07-29T14:30:13.530Z,99724.84
2023-07-29T14:33:16.043Z,99726.41
2023-07-29T14:36:18.466Z,99731.22
2023-07-29T14:39:20.870Z,99718.75
2023-07-29T14:42:23.518Z,99713.28
2023-07-29T14:45:26.179Z,99693.97
2023-07-29T14:48:28.733Z,99713.47
2023-07-29T14:51:31.276Z,99716.41
2023-07-29T14:54:33.683Z,99719.88
2023-07-29T14:57:36.194Z,99716.22
2023-07-29T15:00:38.811Z,99721.34
2023-07-29T15:03:41.299Z,99717.53
2023-07-29T15:06:44.381Z,99715.97
2023-07-29T15:09:47.475Z,99720.44
2023-07-29T15:12:49.896Z,99709.53
2023-07-29T15:15:52.352Z,99701.19
2023-07-29T15:18:54.848Z,99705.72
2023-07-29T15:21:57.280Z,99703.53
2023-07-29T15:25:01.354Z,99696.63
2023-07-29T15:28:03.943Z,99703.19
2023-07-29T15:31:07.068Z,99708.53
2023-07-29T15:34:09.557Z,99714.41
2023-07-29T15:37:11.992Z,99718.53
2023-07-29T15:40:14.722Z,99723.44
2023-07-29T15:43:17.131Z,99730.66
2023-07-29T15:46:19.670Z,99749.50
2023-07-29T15:49:22.260Z,99750.28
2023-07-29T15:52:24.904Z,99743.09
2023-07-29T15:55:27.396Z,99745.13
2023-07-29T15:58:29.861Z,99744.66
2023-07-29T16:01:32.422Z,99742.06
2023-07-29T16:04:34.900Z,99747.44
2023-07-29T16:07:37.308Z,99755.41
2023-07-29T16:10:39.701Z,99758.50
2023-07-29T16:13:42.120Z,99758.34
2023-07-29T16:16:45.461Z,99755.75
2023-07-29T16:19:58.918Z,99761.34
2023-07-29T16:23:01.324Z,99761.44
2023-07-29T16:26:03.758Z,99775.94
2023-07-29T16:29:06.621Z,99762.09
2023-07-29T16:32:09.516Z,99767.09
2023-07-29T16:35:11.985Z,99768.88
2023-07-29T16:38:14.388Z,99770.69
2023-07-29T16:41:46.230Z,99768.94
2023-07-29T16:44:41.654Z,99773.28
2023-07-29T16:47:44.210Z,99785.41
2023-07-29T16:50:46.691Z,99786.66
2023-07-29T16:53:49.402Z,99790.72
2023-07-29T16:56:52.267Z,99793.53
2023-07-29T16:59:54.758Z,99799.31
2023-07-29T17:02:57.313Z,99805.16
2023-07-29T17:05:59.827Z,99800.28
2023-07-29T17:09:02.234Z,99798.72
2023-07-29T17:12:05.221Z,99812.00
2023-07-29T17:15:09.662Z,99816.66
2023-07-29T17:18:12.197Z,99812.03
2023-07-29T17:21:14.688Z,99809.44
2023-07-29T17:24:17.487Z,99810.31
2023-07-29T17:27:20.059Z,99807.34
2023-07-29T17:30:22.454Z,99798.53
2023-07-29T17:33:25.999Z,99799.66
2023-07-29T17:36:28.503Z,99798.41
2023-07-29T17:39:31.011Z,99786.09
2023-07-29T17:42:33.520Z,99791.44
2023-07-29T17:45:35.911Z,99797.19
2023-07-29T17:48:38.487Z,99790.72
2023-07-29T17:51:41.060Z,99785.91
2023-07-29T17:54:43.535Z,99786.94
2023-07-29T17:57:45.994Z,99784.88
2023-07-29T18:00:50.082Z,99779.34
2023-07-29T18:03:52.498Z,99779.00
2023-07-29T18:06:56.721Z,99784.31
2023-07-29T18:10:00.379Z,99774.19
2023-07-29T18:13:02.866Z,99779.84
2023-07-29T18:16:05.280Z,99778.41
2023-07-29T18:19:07.823Z,99789.06
2023-07-29T18:22:10.324Z,99796.59
2023-07-29T18:25:12.758Z,99792.66
2023-07-29T18:28:15.230Z,99794.28
2023-07-29T18:31:17.727Z,99794.72
2023-07-29T18:34:20.379Z,99793.56
2023-07-29T18:37:22.906Z,99798.25
2023-07-29T18:40:27.467Z,99797.88
2023-07-29T18:43:29.922Z,99794.38
2023-07-29T18:46:32.836Z,99806.59
2023-07-29T18:49:35.324Z,99804.69
2023-07-29T18:52:37.849Z,99809.88
2023-07-29T18:55:41.213Z,99821.72
2023-07-29T18:58:43.748Z,99830.44
2023-07-29T19:01:46.221Z,99830.41
2023-07-29T19:04:49.427Z,99836.25
2023-07-29T19:07:51.802Z,99833.56
2023-07-29T19:10:54.208Z,99824.00
2023-07-29T19:13:56.642Z,99829.53
2023-07-29T19:16:59.119Z,99827.97
2023-07-29T19:20:07.012Z,99832.69
2023-07-29T19:23:09.564Z,99835.34
2023-07-29T19:26:12.038Z,99831.72
2023-07-29T19:29:15.610Z,99837.91
2023-07-29T19:32:19.396Z,99844.66
2023-07-29T19:35:22.020Z,99846.34
2023-07-29T19:38:24.842Z,99855.47
2023-07-29T19:41:29.451Z,99852.31
2023-07-29T19:44:34.354Z,99851.03
2023-07-29T19:47:36.974Z,99856.50
2023-07-29T19:50:39.409Z,99856.44
2023-07-29T19:53:41.844Z,99857.25
2023-07-29T19:56:44.275Z,99858.44
2023-07-29T19:59:49.051Z,99851.72
2023-07-29T20:02:51.815Z,99846.69
2023-07-29T20:05:54.376Z,99841.19
2023-07-29T20:08:56.852Z,99843.25
2023-07-29T20:11:59.238Z,99834.28
2023-07-29T20:15:01.917Z,99846.13
2023-07-29T20:18:04.475Z,99846.59
2023-07-29T20:21:06.902Z,99852.09
2023-07-29T20:24:09.418Z,99852.03
2023-07-29T20:27:11.873Z,99847.38
2023-07-29T20:30:14.469Z,99843.47
2023-07-29T20:33:16.848Z,99858.47
2023-07-29T20:36:19.263Z,99857.63
2023-07-29T20:39:21.770Z,99851.31
2023-07-29T20:42:24.205Z,99859.66
2023-07-29T20:45:26.678Z,99849.47
2023-07-29T20:48:29.535Z,99832.97
2023-07-29T20:51:32.013Z,99828.59
2023-07-29T20:54:34.436Z,99823.84
2023-07-29T20:57:36.870Z,99820.00
2023-07-29T21:00:39.358Z,99820.41
2023-07-29T21:03:41.845Z,99818.53
2023-07-29T21:06:44.265Z,99819.75
2023-07-29T21:09:46.662Z,99826.44
2023-07-29T21:12:49.115Z,99829.16
2023-07-29T21:15:51.985Z,99830.00
2023-07-29T21:18:54.563Z,99826.84
2023-07-29T21:21:56.991Z,99822.53
2023-07-29T21:24:59.467Z,99827.25
2023-07-29T21:28:01.933Z,99839.03
2023-07-29T21:31:04.572Z,99848.06
2023-07-29T21:34:07.064Z,99854.59
2023-07-29T21:37:11.564Z,99866.06
2023-07-29T21:40:18.040Z,99863.66
2023-07-29T21:43:20.502Z,99867.91
2023-07-29T21:46:23.049Z,99867.47
2023-07-29T21:49:25.547Z,99868.63
2023-07-29T21:52:29.441Z,99874.16
2023-07-29T21:55:31.907Z,99878.03
2023-07-29T21:58:34.342Z,99874.84
2023-07-29T22:01:36.969Z,99883.38
2023-07-29T22:04:39.742Z,99883.72
2023-07-29T22:07:42.251Z,99893.84
2023-07-29T22:10:44.730Z,99890.34
2023-07-29T22:13:47.241Z,99892.66
2023-07-29T22:16:49.741Z,99895.44
2023-07-29T22:19:52.291Z,99899.56
2023-07-29T22:22:54.723Z,99906.38
2023-07-29T22:26:01.288Z,99902.13
2023-07-29T22:29:03.887Z,99914.69
2023-07-29T22:32:07.190Z,99907.63
2023-07-29T22:35:09.718Z,99901.88
2023-07-29T22:38:12.212Z,99900.44
2023-07-29T22:41:14.636Z,99895.00
2023-07-29T22:44:17.113Z,99895.34
2023-07-29T22:47:19.549Z,99891.53
2023-07-29T22:50:22.160Z,99888.06
2023-07-29T22:53:25.114Z,99886.91
2023-07-29T22:56:27.511Z,99882.59
2023-07-29T22:59:29.994Z,99875.09
2023-07-29T23:02:32.516Z,99870.44
2023-07-29T23:05:37.172Z,99869.63
2023-07-29T23:08:39.676Z,99878.31
2023-07-29T23:11:42.066Z,99892.03
2023-07-29T23:14:44.879Z,99889.66
2023-07-29T23:17:47.399Z,99884.91
2023-07-29T23:20:53.165Z,99870.41
2023-07-29T23:23:55.728Z,99867.66
2023-07-29T23:26:58.221Z,99890.41
2023-07-29T23:30:00.650Z,99898.63
2023-07-29T23:33:03.104Z,99889.44
2023-07-29T23:36:05.566Z,99897.44
2023-07-29T23:39:07.949Z,99888.09
2023-07-29T23:42:10.369Z,99886.47
2023-07-29T23:45:12.840Z,99873.06
2023-07-29T23:48:15.253Z,99875.13
2023-07-29T23:51:17.712Z,99879.09
2023-07-29T23:54:20.135Z,99890.03
2023-07-29T23:57:22.560Z,99892.25
